sensor_id;sensor_type;location;lat;lon;timestamp;temperature;humidity
37678;DHT22;23517;50.390;8.616;2023-04-03T00:01:08;4.80;43.20
37678;DHT22;23517;50.390;8.616;2023-04-03T00:03:34;4.80;42.80
37678;DHT22;23517;50.390;8.616;2023-04-03T00:06:06;4.80;43.00
37678;DHT22;23517;50.390;8.616;2023-04-03T00:08:35;4.80;43.10
37678;DHT22;23517;50.390;8.616;2023-04-03T00:11:03;4.70;42.70
37678;DHT22;23517;50.390;8.616;2023-04-03T00:13:32;4.70;42.40
37678;DHT22;23517;50.390;8.616;2023-04-03T00:15:59;4.60;43.00
37678;DHT22;23517;50.390;8.616;2023-04-03T00:18:26;4.70;43.30
37678;DHT22;23517;50.390;8.616;2023-04-03T00:20:53;4.70;43.30
37678;DHT22;23517;50.390;8.616;2023-04-03T00:23:19;4.70;43.30
37678;DHT22;23517;50.390;8.616;2023-04-03T00:25:46;4.70;42.20
37678;DHT22;23517;50.390;8.616;2023-04-03T00:28:13;4.70;42.40
37678;DHT22;23517;50.390;8.616;2023-04-03T00:30:39;4.70;42.40
37678;DHT22;23517;50.390;8.616;2023-04-03T00:33:06;4.80;42.70
37678;DHT22;23517;50.390;8.616;2023-04-03T00:35:34;4.70;41.90
37678;DHT22;23517;50.390;8.616;2023-04-03T00:38:01;4.70;42.40
37678;DHT22;23517;50.390;8.616;2023-04-03T00:40:33;4.80;42.80
37678;DHT22;23517;50.390;8.616;2023-04-03T00:43:13;4.80;42.70
37678;DHT22;23517;50.390;8.616;2023-04-03T00:45:43;4.70;42.30
37678;DHT22;23517;50.390;8.616;2023-04-03T00:48:26;4.70;41.80
37678;DHT22;23517;50.390;8.616;2023-04-03T00:50:55;4.80;41.70
37678;DHT22;23517;50.390;8.616;2023-04-03T00:53:27;4.80;40.50
37678;DHT22;23517;50.390;8.616;2023-04-03T00:55:59;4.80;40.30
37678;DHT22;23517;50.390;8.616;2023-04-03T00:58:35;4.80;40.20
37678;DHT22;23517;50.390;8.616;2023-04-03T01:01:07;4.90;40.40
37678;DHT22;23517;50.390;8.616;2023-04-03T01:03:35;4.90;39.40
37678;DHT22;23517;50.390;8.616;2023-04-03T01:06:02;4.90;39.20
37678;DHT22;23517;50.390;8.616;2023-04-03T01:08:29;4.80;39.30
37678;DHT22;23517;50.390;8.616;2023-04-03T01:10:57;4.80;38.70
37678;DHT22;23517;50.390;8.616;2023-04-03T01:13:29;4.80;38.50
37678;DHT22;23517;50.390;8.616;2023-04-03T01:16:01;4.90;38.10
37678;DHT22;23517;50.390;8.616;2023-04-03T01:18:29;4.80;38.90
37678;DHT22;23517;50.390;8.616;2023-04-03T01:26:29;4.70;40.80
37678;DHT22;23517;50.390;8.616;2023-04-03T01:28:59;4.70;40.50
37678;DHT22;23517;50.390;8.616;2023-04-03T01:34:03;4.70;41.10
37678;DHT22;23517;50.390;8.616;2023-04-03T01:36:36;4.80;41.40
37678;DHT22;23517;50.390;8.616;2023-04-03T01:39:07;4.80;41.70
37678;DHT22;23517;50.390;8.616;2023-04-03T01:41:34;4.80;41.50
37678;DHT22;23517;50.390;8.616;2023-04-03T01:44:01;4.80;41.70
37678;DHT22;23517;50.390;8.616;2023-04-03T01:46:28;4.70;41.90
37678;DHT22;23517;50.390;8.616;2023-04-03T01:48:54;4.70;42.00
37678;DHT22;23517;50.390;8.616;2023-04-03T01:51:21;4.70;42.20
37678;DHT22;23517;50.390;8.616;2023-04-03T01:53:48;4.60;42.00
37678;DHT22;23517;50.390;8.616;2023-04-03T01:56:15;4.60;41.70
37678;DHT22;23517;50.390;8.616;2023-04-03T01:58:42;4.60;42.10
37678;DHT22;23517;50.390;8.616;2023-04-03T02:01:09;4.60;42.80
37678;DHT22;23517;50.390;8.616;2023-04-03T02:03:36;4.60;42.40
37678;DHT22;23517;50.390;8.616;2023-04-03T02:06:03;4.60;43.00
37678;DHT22;23517;50.390;8.616;2023-04-03T02:08:29;4.60;43.10
37678;DHT22;23517;50.390;8.616;2023-04-03T02:10:56;4.50;43.00
37678;DHT22;23517;50.390;8.616;2023-04-03T02:13:23;4.40;43.20
37678;DHT22;23517;50.390;8.616;2023-04-03T02:15:49;4.40;43.10
37678;DHT22;23517;50.390;8.616;2023-04-03T02:18:17;4.40;43.40
37678;DHT22;23517;50.390;8.616;2023-04-03T02:20:44;4.40;43.80
37678;DHT22;23517;50.390;8.616;2023-04-03T02:23:11;4.30;44.40
37678;DHT22;23517;50.390;8.616;2023-04-03T02:25:37;4.30;44.40
37678;DHT22;23517;50.390;8.616;2023-04-03T02:28:05;4.40;44.80
37678;DHT22;23517;50.390;8.616;2023-04-03T02:30:32;4.40;44.50
37678;DHT22;23517;50.390;8.616;2023-04-03T02:32:59;4.40;44.40
37678;DHT22;23517;50.390;8.616;2023-04-03T02:35:26;4.30;44.70
37678;DHT22;23517;50.390;8.616;2023-04-03T02:37:52;4.30;44.90
37678;DHT22;23517;50.390;8.616;2023-04-03T02:40:19;4.20;44.80
37678;DHT22;23517;50.390;8.616;2023-04-03T02:42:49;4.30;44.80
37678;DHT22;23517;50.390;8.616;2023-04-03T02:45:18;4.20;44.60
37678;DHT22;23517;50.390;8.616;2023-04-03T02:47:45;4.20;44.80
37678;DHT22;23517;50.390;8.616;2023-04-03T02:50:12;4.10;45.30
37678;DHT22;23517;50.390;8.616;2023-04-03T02:52:39;4.10;45.90
37678;DHT22;23517;50.390;8.616;2023-04-03T02:55:06;4.10;45.90
37678;DHT22;23517;50.390;8.616;2023-04-03T02:57:33;4.00;46.30
37678;DHT22;23517;50.390;8.616;2023-04-03T02:59:59;4.10;46.00
37678;DHT22;23517;50.390;8.616;2023-04-03T03:02:26;4.00;46.40
37678;DHT22;23517;50.390;8.616;2023-04-03T03:04:54;3.90;46.80
37678;DHT22;23517;50.390;8.616;2023-04-03T03:07:21;3.90;46.80
37678;DHT22;23517;50.390;8.616;2023-04-03T03:09:48;3.90;46.60
37678;DHT22;23517;50.390;8.616;2023-04-03T03:12:14;3.90;46.80
37678;DHT22;23517;50.390;8.616;2023-04-03T03:14:41;3.90;46.70
37678;DHT22;23517;50.390;8.616;2023-04-03T03:17:11;3.90;46.30
37678;DHT22;23517;50.390;8.616;2023-04-03T03:19:38;3.70;46.00
37678;DHT22;23517;50.390;8.616;2023-04-03T03:22:04;3.60;46.10
37678;DHT22;23517;50.390;8.616;2023-04-03T03:24:31;3.50;46.00
37678;DHT22;23517;50.390;8.616;2023-04-03T03:26:58;3.50;45.70
37678;DHT22;23517;50.390;8.616;2023-04-03T03:29:24;3.40;46.00
37678;DHT22;23517;50.390;8.616;2023-04-03T03:31:51;3.30;46.10
37678;DHT22;23517;50.390;8.616;2023-04-03T03:34:19;3.40;45.70
37678;DHT22;23517;50.390;8.616;2023-04-03T03:36:46;3.30;46.00
37678;DHT22;23517;50.390;8.616;2023-04-03T03:39:12;3.20;45.20
37678;DHT22;23517;50.390;8.616;2023-04-03T03:41:39;3.20;45.50
37678;DHT22;23517;50.390;8.616;2023-04-03T03:44:06;3.20;45.30
37678;DHT22;23517;50.390;8.616;2023-04-03T03:46:32;3.10;45.50
37678;DHT22;23517;50.390;8.616;2023-04-03T03:48:59;3.10;45.60
37678;DHT22;23517;50.390;8.616;2023-04-03T03:51:26;3.00;45.80
37678;DHT22;23517;50.390;8.616;2023-04-03T03:53:53;3.00;46.20
37678;DHT22;23517;50.390;8.616;2023-04-03T03:56:20;3.00;46.50
37678;DHT22;23517;50.390;8.616;2023-04-03T03:58:47;3.00;46.50
37678;DHT22;23517;50.390;8.616;2023-04-03T04:01:13;2.90;45.90
37678;DHT22;23517;50.390;8.616;2023-04-03T04:03:43;2.90;46.40
37678;DHT22;23517;50.390;8.616;2023-04-03T04:06:09;2.90;46.50
37678;DHT22;23517;50.390;8.616;2023-04-03T04:08:36;2.90;46.20
37678;DHT22;23517;50.390;8.616;2023-04-03T04:11:03;2.90;45.80
37678;DHT22;23517;50.390;8.616;2023-04-03T04:13:30;2.80;46.30
37678;DHT22;23517;50.390;8.616;2023-04-03T04:15:56;2.70;45.80
37678;DHT22;23517;50.390;8.616;2023-04-03T04:18:23;2.60;45.80
37678;DHT22;23517;50.390;8.616;2023-04-03T04:20:50;2.50;46.50
37678;DHT22;23517;50.390;8.616;2023-04-03T04:23:17;2.40;47.10
37678;DHT22;23517;50.390;8.616;2023-04-03T04:25:48;2.40;46.40
37678;DHT22;23517;50.390;8.616;2023-04-03T04:28:15;2.20;46.70
37678;DHT22;23517;50.390;8.616;2023-04-03T04:30:42;2.20;47.40
37678;DHT22;23517;50.390;8.616;2023-04-03T04:33:09;2.30;47.20
37678;DHT22;23517;50.390;8.616;2023-04-03T04:35:36;2.20;46.80
37678;DHT22;23517;50.390;8.616;2023-04-03T04:38:04;2.30;47.40
37678;DHT22;23517;50.390;8.616;2023-04-03T04:40:31;2.20;47.10
37678;DHT22;23517;50.390;8.616;2023-04-03T04:42:57;2.20;47.30
37678;DHT22;23517;50.390;8.616;2023-04-03T04:45:24;2.20;47.50
37678;DHT22;23517;50.390;8.616;2023-04-03T04:47:50;2.10;47.30
37678;DHT22;23517;50.390;8.616;2023-04-03T04:50:20;1.90;47.70
37678;DHT22;23517;50.390;8.616;2023-04-03T04:52:47;2.00;47.30
37678;DHT22;23517;50.390;8.616;2023-04-03T04:55:13;2.00;47.80
37678;DHT22;23517;50.390;8.616;2023-04-03T04:57:40;1.90;48.10
37678;DHT22;23517;50.390;8.616;2023-04-03T05:00:07;1.90;47.90
37678;DHT22;23517;50.390;8.616;2023-04-03T05:02:35;1.90;49.00
37678;DHT22;23517;50.390;8.616;2023-04-03T05:05:01;1.90;48.80
37678;DHT22;23517;50.390;8.616;2023-04-03T05:07:30;1.90;48.50
37678;DHT22;23517;50.390;8.616;2023-04-03T05:09:57;1.90;48.60
37678;DHT22;23517;50.390;8.616;2023-04-03T05:12:24;1.90;48.80
37678;DHT22;23517;50.390;8.616;2023-04-03T05:14:51;2.00;48.80
37678;DHT22;23517;50.390;8.616;2023-04-03T05:17:17;2.00;48.10
37678;DHT22;23517;50.390;8.616;2023-04-03T05:19:44;2.00;48.30
37678;DHT22;23517;50.390;8.616;2023-04-03T05:22:10;1.90;49.30
37678;DHT22;23517;50.390;8.616;2023-04-03T05:24:37;1.90;49.00
37678;DHT22;23517;50.390;8.616;2023-04-03T05:27:04;1.90;48.90
37678;DHT22;23517;50.390;8.616;2023-04-03T05:29:31;1.90;48.40
37678;DHT22;23517;50.390;8.616;2023-04-03T05:31:58;1.90;48.90
37678;DHT22;23517;50.390;8.616;2023-04-03T05:34:26;1.90;48.90
37678;DHT22;23517;50.390;8.616;2023-04-03T05:36:52;1.90;48.10
37678;DHT22;23517;50.390;8.616;2023-04-03T05:39:19;1.90;48.70
37678;DHT22;23517;50.390;8.616;2023-04-03T05:41:46;1.90;48.70
37678;DHT22;23517;50.390;8.616;2023-04-03T05:44:12;1.90;48.50
37678;DHT22;23517;50.390;8.616;2023-04-03T05:46:39;2.00;48.30
37678;DHT22;23517;50.390;8.616;2023-04-03T05:49:06;2.00;48.20
37678;DHT22;23517;50.390;8.616;2023-04-03T05:51:35;2.00;48.10
37678;DHT22;23517;50.390;8.616;2023-04-03T05:56:43;2.10;48.00
37678;DHT22;23517;50.390;8.616;2023-04-03T05:59:10;2.10;48.10
37678;DHT22;23517;50.390;8.616;2023-04-03T06:01:38;2.10;48.00
37678;DHT22;23517;50.390;8.616;2023-04-03T06:04:04;2.20;47.30
37678;DHT22;23517;50.390;8.616;2023-04-03T06:06:53;2.20;47.80
37678;DHT22;23517;50.390;8.616;2023-04-03T06:09:24;2.30;47.90
37678;DHT22;23517;50.390;8.616;2023-04-03T06:11:52;2.40;48.00
37678;DHT22;23517;50.390;8.616;2023-04-03T06:14:29;2.60;46.90
37678;DHT22;23517;50.390;8.616;2023-04-03T06:16:56;2.60;45.80
37678;DHT22;23517;50.390;8.616;2023-04-03T06:19:23;2.80;45.60
37678;DHT22;23517;50.390;8.616;2023-04-03T06:21:50;2.90;44.90
37678;DHT22;23517;50.390;8.616;2023-04-03T06:24:17;3.00;44.70
37678;DHT22;23517;50.390;8.616;2023-04-03T06:26:44;3.20;44.60
37678;DHT22;23517;50.390;8.616;2023-04-03T06:29:15;3.30;43.90
37678;DHT22;23517;50.390;8.616;2023-04-03T06:31:41;3.30;43.50
37678;DHT22;23517;50.390;8.616;2023-04-03T06:34:08;3.40;43.10
37678;DHT22;23517;50.390;8.616;2023-04-03T06:36:35;3.70;41.80
37678;DHT22;23517;50.390;8.616;2023-04-03T06:39:02;3.80;41.50
37678;DHT22;23517;50.390;8.616;2023-04-03T06:41:29;3.90;41.30
37678;DHT22;23517;50.390;8.616;2023-04-03T06:43:57;4.50;39.10
37678;DHT22;23517;50.390;8.616;2023-04-03T06:46:26;5.00;37.80
37678;DHT22;23517;50.390;8.616;2023-04-03T06:48:53;5.90;34.70
37678;DHT22;23517;50.390;8.616;2023-04-03T06:51:22;6.00;32.60
37678;DHT22;23517;50.390;8.616;2023-04-03T06:53:57;6.10;32.50
37678;DHT22;23517;50.390;8.616;2023-04-03T06:56:25;6.10;33.10
37678;DHT22;23517;50.390;8.616;2023-04-03T06:58:54;6.40;31.80
37678;DHT22;23517;50.390;8.616;2023-04-03T07:01:22;6.90;31.30
37678;DHT22;23517;50.390;8.616;2023-04-03T07:03:50;7.10;30.00
37678;DHT22;23517;50.390;8.616;2023-04-03T07:06:19;6.50;31.00
37678;DHT22;23517;50.390;8.616;2023-04-03T07:08:46;6.00;31.70
37678;DHT22;23517;50.390;8.616;2023-04-03T07:11:15;5.90;33.20
37678;DHT22;23517;50.390;8.616;2023-04-03T07:13:42;6.50;32.80
37678;DHT22;23517;50.390;8.616;2023-04-03T07:16:13;6.30;31.50
37678;DHT22;23517;50.390;8.616;2023-04-03T07:18:40;6.10;32.30
37678;DHT22;23517;50.390;8.616;2023-04-03T07:21:07;6.00;32.50
37678;DHT22;23517;50.390;8.616;2023-04-03T07:23:34;5.50;33.80
37678;DHT22;23517;50.390;8.616;2023-04-03T07:26:01;4.80;35.60
37678;DHT22;23517;50.390;8.616;2023-04-03T07:28:28;4.60;37.00
37678;DHT22;23517;50.390;8.616;2023-04-03T07:31:03;4.70;37.30
37678;DHT22;23517;50.390;8.616;2023-04-03T07:33:33;4.70;37.00
37678;DHT22;23517;50.390;8.616;2023-04-03T07:36:01;6.20;35.40
37678;DHT22;23517;50.390;8.616;2023-04-03T07:38:28;7.50;30.90
37678;DHT22;23517;50.390;8.616;2023-04-03T07:40:56;7.40;30.40
37678;DHT22;23517;50.390;8.616;2023-04-03T07:43:22;7.00;29.20
37678;DHT22;23517;50.390;8.616;2023-04-03T07:45:54;6.70;30.40
37678;DHT22;23517;50.390;8.616;2023-04-03T07:48:22;6.60;31.50
37678;DHT22;23517;50.390;8.616;2023-04-03T07:50:50;8.50;28.60
37678;DHT22;23517;50.390;8.616;2023-04-03T07:53:18;9.80;25.70
37678;DHT22;23517;50.390;8.616;2023-04-03T07:55:48;10.90;21.70
37678;DHT22;23517;50.390;8.616;2023-04-03T07:58:18;10.90;20.60
37678;DHT22;23517;50.390;8.616;2023-04-03T08:00:45;13.30;18.20
37678;DHT22;23517;50.390;8.616;2023-04-03T08:03:13;14.70;15.60
37678;DHT22;23517;50.390;8.616;2023-04-03T08:05:45;15.90;14.10
37678;DHT22;23517;50.390;8.616;2023-04-03T08:08:14;16.90;13.30
37678;DHT22;23517;50.390;8.616;2023-04-03T08:10:50;17.20;11.40
37678;DHT22;23517;50.390;8.616;2023-04-03T08:13:18;17.00;11.80
37678;DHT22;23517;50.390;8.616;2023-04-03T08:15:46;16.70;11.30
37678;DHT22;23517;50.390;8.616;2023-04-03T08:18:14;15.60;12.00
37678;DHT22;23517;50.390;8.616;2023-04-03T08:20:42;15.40;12.80
37678;DHT22;23517;50.390;8.616;2023-04-03T08:23:09;16.00;12.90
37678;DHT22;23517;50.390;8.616;2023-04-03T08:25:39;15.90;11.80
37678;DHT22;23517;50.390;8.616;2023-04-03T08:28:08;16.10;12.40
37678;DHT22;23517;50.390;8.616;2023-04-03T08:30:41;16.50;11.70
37678;DHT22;23517;50.390;8.616;2023-04-03T08:33:09;17.00;10.40
37678;DHT22;23517;50.390;8.616;2023-04-03T08:35:40;17.20;11.10
37678;DHT22;23517;50.390;8.616;2023-04-03T08:38:09;17.80;9.20
37678;DHT22;23517;50.390;8.616;2023-04-03T08:40:36;17.80;9.00
37678;DHT22;23517;50.390;8.616;2023-04-03T08:43:35;17.50;10.50
37678;DHT22;23517;50.390;8.616;2023-04-03T08:46:10;18.50;8.50
37678;DHT22;23517;50.390;8.616;2023-04-03T08:48:43;18.40;9.00
37678;DHT22;23517;50.390;8.616;2023-04-03T08:51:14;17.20;9.00
37678;DHT22;23517;50.390;8.616;2023-04-03T08:56:26;16.30;10.30
37678;DHT22;23517;50.390;8.616;2023-04-03T08:58:59;16.60;10.00
37678;DHT22;23517;50.390;8.616;2023-04-03T09:01:37;16.70;10.20
37678;DHT22;23517;50.390;8.616;2023-04-03T09:04:14;16.90;18.00
37678;DHT22;23517;50.390;8.616;2023-04-03T09:06:50;17.40;36.80
37678;DHT22;23517;50.390;8.616;2023-04-03T09:09:36;17.90;8.30
37678;DHT22;23517;50.390;8.616;2023-04-03T09:12:23;17.80;8.70
37678;DHT22;23517;50.390;8.616;2023-04-03T09:15:03;18.00;8.70
37678;DHT22;23517;50.390;8.616;2023-04-03T09:23:44;16.40;9.10
37678;DHT22;23517;50.390;8.616;2023-04-03T09:26:25;16.20;10.00
37678;DHT22;23517;50.390;8.616;2023-04-03T09:29:02;16.80;9.60
37678;DHT22;23517;50.390;8.616;2023-04-03T09:31:38;16.40;9.90
37678;DHT22;23517;50.390;8.616;2023-04-03T09:34:27;15.30;9.90
37678;DHT22;23517;50.390;8.616;2023-04-03T09:37:00;15.00;11.30
37678;DHT22;23517;50.390;8.616;2023-04-03T09:39:49;16.60;10.20
37678;DHT22;23517;50.390;8.616;2023-04-03T09:42:23;16.40;9.40
37678;DHT22;23517;50.390;8.616;2023-04-03T09:44:58;14.30;10.70
37678;DHT22;23517;50.390;8.616;2023-04-03T09:47:36;11.70;13.40
37678;DHT22;23517;50.390;8.616;2023-04-03T09:52:41;9.60;18.30
37678;DHT22;23517;50.390;8.616;2023-04-03T09:55:24;8.80;19.00
37678;DHT22;23517;50.390;8.616;2023-04-03T09:57:59;8.30;20.30
37678;DHT22;23517;50.390;8.616;2023-04-03T10:00:35;7.70;21.00
37678;DHT22;23517;50.390;8.616;2023-04-03T10:03:05;7.70;21.30
37678;DHT22;23517;50.390;8.616;2023-04-03T10:05:40;7.80;21.60
37678;DHT22;23517;50.390;8.616;2023-04-03T10:10:42;7.60;21.70
37678;DHT22;23517;50.390;8.616;2023-04-03T10:13:14;7.30;19.30
37678;DHT22;23517;50.390;8.616;2023-04-03T10:15:51;6.80;20.70
37678;DHT22;23517;50.390;8.616;2023-04-03T10:18:28;6.50;23.00
37678;DHT22;23517;50.390;8.616;2023-04-03T10:21:04;6.50;22.70
37678;DHT22;23517;50.390;8.616;2023-04-03T10:23:53;6.70;21.80
37678;DHT22;23517;50.390;8.616;2023-04-03T10:26:42;6.60;21.50
37678;DHT22;23517;50.390;8.616;2023-04-03T10:29:38;6.50;22.40
37678;DHT22;23517;50.390;8.616;2023-04-03T10:38:20;6.70;22.60
37678;DHT22;23517;50.390;8.616;2023-04-03T10:40:52;6.60;21.70
37678;DHT22;23517;50.390;8.616;2023-04-03T10:46:53;6.50;23.00
37678;DHT22;23517;50.390;8.616;2023-04-03T10:53:03;6.40;21.40
37678;DHT22;23517;50.390;8.616;2023-04-03T10:55:58;6.60;22.50
37678;DHT22;23517;50.390;8.616;2023-04-03T10:58:31;6.60;22.10
37678;DHT22;23517;50.390;8.616;2023-04-03T11:01:07;6.80;22.80
37678;DHT22;23517;50.390;8.616;2023-04-03T11:03:39;7.00;21.30
37678;DHT22;23517;50.390;8.616;2023-04-03T11:06:11;7.10;21.40
37678;DHT22;23517;50.390;8.616;2023-04-03T11:08:42;7.20;22.30
37678;DHT22;23517;50.390;8.616;2023-04-03T11:11:21;7.10;20.60
37678;DHT22;23517;50.390;8.616;2023-04-03T11:14:01;6.80;20.50
37678;DHT22;23517;50.390;8.616;2023-04-03T11:16:33;6.70;21.40
37678;DHT22;23517;50.390;8.616;2023-04-03T11:22:08;7.30;19.80
37678;DHT22;23517;50.390;8.616;2023-04-03T11:24:43;7.60;19.70
37678;DHT22;23517;50.390;8.616;2023-04-03T11:27:21;7.70;19.50
37678;DHT22;23517;50.390;8.616;2023-04-03T11:29:50;7.40;19.20
37678;DHT22;23517;50.390;8.616;2023-04-03T11:32:44;7.40;19.70
37678;DHT22;23517;50.390;8.616;2023-04-03T11:35:18;7.00;18.50
37678;DHT22;23517;50.390;8.616;2023-04-03T11:37:49;7.00;19.90
37678;DHT22;23517;50.390;8.616;2023-04-03T11:40:24;7.10;20.30
37678;DHT22;23517;50.390;8.616;2023-04-03T11:45:33;7.30;19.20
37678;DHT22;23517;50.390;8.616;2023-04-03T11:50:58;7.20;17.20
37678;DHT22;23517;50.390;8.616;2023-04-03T11:58:27;7.30;19.10
37678;DHT22;23517;50.390;8.616;2023-04-03T12:03:57;7.50;19.80
37678;DHT22;23517;50.390;8.616;2023-04-03T12:08:59;7.80;18.20
37678;DHT22;23517;50.390;8.616;2023-04-03T12:11:31;7.70;16.90
37678;DHT22;23517;50.390;8.616;2023-04-03T12:26:51;8.10;17.80
37678;DHT22;23517;50.390;8.616;2023-04-03T12:35:27;7.60;18.80
37678;DHT22;23517;50.390;8.616;2023-04-03T12:46:37;8.00;17.80
37678;DHT22;23517;50.390;8.616;2023-04-03T12:49:32;7.80;17.70
37678;DHT22;23517;50.390;8.616;2023-04-03T12:52:05;7.70;18.30
37678;DHT22;23517;50.390;8.616;2023-04-03T12:54:52;7.60;17.50
37678;DHT22;23517;50.390;8.616;2023-04-03T12:57:21;7.60;16.60
37678;DHT22;23517;50.390;8.616;2023-04-03T12:59:51;7.60;16.20
37678;DHT22;23517;50.390;8.616;2023-04-03T13:02:28;7.60;17.40
37678;DHT22;23517;50.390;8.616;2023-04-03T13:05:08;7.70;17.90
37678;DHT22;23517;50.390;8.616;2023-04-03T13:07:37;7.80;18.00
37678;DHT22;23517;50.390;8.616;2023-04-03T13:12:52;8.00;18.00
37678;DHT22;23517;50.390;8.616;2023-04-03T13:17:54;7.90;17.00
37678;DHT22;23517;50.390;8.616;2023-04-03T13:20:27;7.80;18.10
37678;DHT22;23517;50.390;8.616;2023-04-03T13:23:05;8.00;18.50
37678;DHT22;23517;50.390;8.616;2023-04-03T13:25:37;8.10;17.70
37678;DHT22;23517;50.390;8.616;2023-04-03T13:28:12;8.10;16.70
37678;DHT22;23517;50.390;8.616;2023-04-03T13:30:55;8.10;16.90
37678;DHT22;23517;50.390;8.616;2023-04-03T13:33:35;8.10;18.10
37678;DHT22;23517;50.390;8.616;2023-04-03T13:36:16;7.80;17.30
37678;DHT22;23517;50.390;8.616;2023-04-03T13:38:59;7.80;18.60
37678;DHT22;23517;50.390;8.616;2023-04-03T13:41:40;8.00;19.70
37678;DHT22;23517;50.390;8.616;2023-04-03T13:46:51;7.90;17.50
37678;DHT22;23517;50.390;8.616;2023-04-03T13:50:12;7.70;18.00
37678;DHT22;23517;50.390;8.616;2023-04-03T13:52:49;7.60;17.60
37678;DHT22;23517;50.390;8.616;2023-04-03T13:55:28;7.50;17.90
37678;DHT22;23517;50.390;8.616;2023-04-03T14:00:38;7.70;19.20
37678;DHT22;23517;50.390;8.616;2023-04-03T14:03:25;7.80;18.10
37678;DHT22;23517;50.390;8.616;2023-04-03T14:05:57;8.00;19.00
37678;DHT22;23517;50.390;8.616;2023-04-03T14:08:24;8.20;18.70
37678;DHT22;23517;50.390;8.616;2023-04-03T14:11:19;8.30;19.70
37678;DHT22;23517;50.390;8.616;2023-04-03T14:13:50;8.30;17.60
37678;DHT22;23517;50.390;8.616;2023-04-03T14:16:22;8.10;17.50
37678;DHT22;23517;50.390;8.616;2023-04-03T14:18:51;8.00;17.80
37678;DHT22;23517;50.390;8.616;2023-04-03T14:21:20;7.90;17.90
37678;DHT22;23517;50.390;8.616;2023-04-03T14:23:48;8.00;17.80
37678;DHT22;23517;50.390;8.616;2023-04-03T14:26:18;8.00;18.50
37678;DHT22;23517;50.390;8.616;2023-04-03T14:28:49;8.10;18.20
37678;DHT22;23517;50.390;8.616;2023-04-03T14:31:18;8.10;18.90
37678;DHT22;23517;50.390;8.616;2023-04-03T14:33:46;8.20;18.80
37678;DHT22;23517;50.390;8.616;2023-04-03T14:36:19;8.20;18.00
37678;DHT22;23517;50.390;8.616;2023-04-03T14:38:49;8.30;19.30
37678;DHT22;23517;50.390;8.616;2023-04-03T14:41:18;8.10;18.60
37678;DHT22;23517;50.390;8.616;2023-04-03T14:43:56;8.00;18.60
37678;DHT22;23517;50.390;8.616;2023-04-03T14:46:32;7.90;18.50
37678;DHT22;23517;50.390;8.616;2023-04-03T14:49:24;7.80;18.20
37678;DHT22;23517;50.390;8.616;2023-04-03T14:51:52;7.80;17.90
37678;DHT22;23517;50.390;8.616;2023-04-03T14:54:21;7.80;17.80
37678;DHT22;23517;50.390;8.616;2023-04-03T14:56:54;7.70;16.30
37678;DHT22;23517;50.390;8.616;2023-04-03T14:59:22;7.80;17.20
37678;DHT22;23517;50.390;8.616;2023-04-03T15:01:49;8.00;17.00
37678;DHT22;23517;50.390;8.616;2023-04-03T15:04:19;8.00;17.20
37678;DHT22;23517;50.390;8.616;2023-04-03T15:06:48;7.80;16.00
37678;DHT22;23517;50.390;8.616;2023-04-03T15:09:23;7.70;16.40
37678;DHT22;23517;50.390;8.616;2023-04-03T15:11:53;7.70;16.00
37678;DHT22;23517;50.390;8.616;2023-04-03T15:14:21;7.70;16.90
37678;DHT22;23517;50.390;8.616;2023-04-03T15:17:05;7.80;15.90
37678;DHT22;23517;50.390;8.616;2023-04-03T15:19:38;7.80;17.30
37678;DHT22;23517;50.390;8.616;2023-04-03T15:22:06;8.00;17.70
37678;DHT22;23517;50.390;8.616;2023-04-03T15:24:33;8.10;18.30
37678;DHT22;23517;50.390;8.616;2023-04-03T15:27:00;8.10;18.20
37678;DHT22;23517;50.390;8.616;2023-04-03T15:29:27;8.10;18.50
37678;DHT22;23517;50.390;8.616;2023-04-03T15:31:54;8.00;17.70
37678;DHT22;23517;50.390;8.616;2023-04-03T15:34:21;7.90;18.30
37678;DHT22;23517;50.390;8.616;2023-04-03T15:36:49;7.80;18.80
37678;DHT22;23517;50.390;8.616;2023-04-03T15:39:19;7.70;18.10
37678;DHT22;23517;50.390;8.616;2023-04-03T15:41:46;7.80;18.80
37678;DHT22;23517;50.390;8.616;2023-04-03T15:44:13;7.80;18.50
37678;DHT22;23517;50.390;8.616;2023-04-03T15:46:45;7.60;16.90
37678;DHT22;23517;50.390;8.616;2023-04-03T15:49:12;7.30;17.40
37678;DHT22;23517;50.390;8.616;2023-04-03T15:51:39;7.20;17.50
37678;DHT22;23517;50.390;8.616;2023-04-03T15:54:06;7.20;17.30
37678;DHT22;23517;50.390;8.616;2023-04-03T15:56:33;7.10;17.30
37678;DHT22;23517;50.390;8.616;2023-04-03T15:59:00;7.20;18.00
37678;DHT22;23517;50.390;8.616;2023-04-03T16:01:26;7.20;18.50
37678;DHT22;23517;50.390;8.616;2023-04-03T16:03:53;7.20;18.50
37678;DHT22;23517;50.390;8.616;2023-04-03T16:06:20;7.30;17.90
37678;DHT22;23517;50.390;8.616;2023-04-03T16:08:48;7.30;18.10
37678;DHT22;23517;50.390;8.616;2023-04-03T16:11:15;7.20;17.50
37678;DHT22;23517;50.390;8.616;2023-04-03T16:13:42;7.20;18.20
37678;DHT22;23517;50.390;8.616;2023-04-03T16:16:09;7.10;18.10
37678;DHT22;23517;50.390;8.616;2023-04-03T16:18:39;7.10;18.30
37678;DHT22;23517;50.390;8.616;2023-04-03T16:21:06;7.00;19.00
37678;DHT22;23517;50.390;8.616;2023-04-03T16:23:34;7.00;19.20
37678;DHT22;23517;50.390;8.616;2023-04-03T16:26:01;7.00;18.10
37678;DHT22;23517;50.390;8.616;2023-04-03T16:28:28;7.00;18.90
37678;DHT22;23517;50.390;8.616;2023-04-03T16:30:55;7.00;18.50
37678;DHT22;23517;50.390;8.616;2023-04-03T16:33:21;6.90;18.70
37678;DHT22;23517;50.390;8.616;2023-04-03T16:35:50;6.90;19.50
37678;DHT22;23517;50.390;8.616;2023-04-03T16:38:18;6.90;18.90
37678;DHT22;23517;50.390;8.616;2023-04-03T16:40:45;6.80;19.10
37678;DHT22;23517;50.390;8.616;2023-04-03T16:43:12;6.90;18.90
37678;DHT22;23517;50.390;8.616;2023-04-03T16:45:39;6.80;17.90
37678;DHT22;23517;50.390;8.616;2023-04-03T16:48:06;6.70;18.70
37678;DHT22;23517;50.390;8.616;2023-04-03T16:50:33;6.60;19.30
37678;DHT22;23517;50.390;8.616;2023-04-03T16:52:59;6.60;19.70
37678;DHT22;23517;50.390;8.616;2023-04-03T16:55:26;6.50;20.00
37678;DHT22;23517;50.390;8.616;2023-04-03T16:57:53;6.50;20.90
37678;DHT22;23517;50.390;8.616;2023-04-03T17:00:20;6.40;20.80
37678;DHT22;23517;50.390;8.616;2023-04-03T17:02:47;6.30;20.80
37678;DHT22;23517;50.390;8.616;2023-04-03T17:05:14;6.30;20.60
37678;DHT22;23517;50.390;8.616;2023-04-03T17:07:41;6.30;20.70
37678;DHT22;23517;50.390;8.616;2023-04-03T17:10:08;6.20;21.20
37678;DHT22;23517;50.390;8.616;2023-04-03T17:12:35;6.20;22.10
37678;DHT22;23517;50.390;8.616;2023-04-03T17:15:02;6.20;22.40
37678;DHT22;23517;50.390;8.616;2023-04-03T17:17:29;6.20;22.80
37678;DHT22;23517;50.390;8.616;2023-04-03T17:19:57;6.10;23.40
37678;DHT22;23517;50.390;8.616;2023-04-03T17:22:24;6.10;23.00
37678;DHT22;23517;50.390;8.616;2023-04-03T17:24:51;6.00;21.80
37678;DHT22;23517;50.390;8.616;2023-04-03T17:27:18;5.90;21.90
37678;DHT22;23517;50.390;8.616;2023-04-03T17:29:44;5.90;22.20
37678;DHT22;23517;50.390;8.616;2023-04-03T17:32:11;5.80;22.40
37678;DHT22;23517;50.390;8.616;2023-04-03T17:34:38;5.70;23.50
37678;DHT22;23517;50.390;8.616;2023-04-03T17:37:05;5.60;23.70
37678;DHT22;23517;50.390;8.616;2023-04-03T17:39:34;5.60;23.90